createdAt,value
2019-05-30T00:01:22.861Z,6.10
2019-05-30T00:03:56.013Z,7.90
2019-05-30T00:06:28.256Z,5.50
2019-05-30T00:09:00.524Z,5.10
2019-05-30T00:11:32.949Z,10.27
2019-05-30T00:14:05.069Z,7.67
2019-05-30T00:16:36.754Z,7.47
2019-05-30T00:19:08.571Z,5.43
2019-05-30T00:21:41.256Z,8.03
2019-05-30T00:24:12.998Z,6.03
2019-05-30T00:26:44.716Z,8.10
2019-05-30T00:29:16.538Z,6.70
2019-05-30T00:31:48.257Z,8.90
2019-05-30T00:34:19.987Z,5.27
2019-05-30T00:36:51.802Z,4.90
2019-05-30T00:39:23.518Z,5.23
2019-05-30T00:41:56.019Z,3.70
2019-05-30T00:44:28.236Z,8.37
2019-05-30T00:47:00.636Z,6.13
2019-05-30T00:49:32.748Z,6.73
2019-05-30T00:52:05.123Z,8.30
2019-05-30T00:54:39.603Z,15.20
2019-05-30T00:57:11.327Z,5.23
2019-05-30T00:59:43.153Z,4.77
2019-05-30T01:02:14.883Z,7.57
2019-05-30T01:04:46.603Z,5.43
2019-05-30T01:07:18.435Z,7.30
2019-05-30T01:09:50.145Z,6.17
2019-05-30T01:12:21.941Z,8.07
2019-05-30T01:14:53.716Z,8.57
2019-05-30T01:17:25.431Z,6.83
2019-05-30T01:19:57.164Z,4.77
2019-05-30T01:22:29.752Z,6.20
2019-05-30T01:25:01.670Z,3.67
2019-05-30T01:27:33.385Z,8.30
2019-05-30T01:30:08.449Z,4.37
2019-05-30T01:32:40.282Z,5.80
2019-05-30T01:35:12.333Z,9.10
2019-05-30T01:37:44.062Z,4.63
2019-05-30T01:40:17.594Z,4.87
2019-05-30T01:42:49.213Z,6.90
2019-05-30T01:45:21.005Z,8.83
2019-05-30T01:47:52.636Z,5.97
2019-05-30T01:50:24.531Z,7.83
2019-05-30T01:52:56.167Z,3.60
2019-05-30T01:55:28.831Z,6.10
2019-05-30T01:58:01.558Z,5.53
2019-05-30T02:00:41.581Z,7.83
2019-05-30T02:03:13.107Z,6.87
2019-05-30T02:05:44.827Z,5.73
2019-05-30T02:08:16.549Z,7.40
2019-05-30T02:10:48.363Z,8.30
2019-05-30T02:13:20.093Z,4.93
2019-05-30T02:15:51.814Z,3.90
2019-05-30T02:18:23.654Z,5.77
2019-05-30T02:20:55.366Z,5.83
2019-05-30T02:23:27.089Z,10.07
2019-05-30T02:26:00.093Z,8.03
2019-05-30T02:28:31.902Z,8.33
2019-05-30T02:31:05.258Z,6.57
2019-05-30T02:33:36.935Z,7.73
2019-05-30T02:36:10.968Z,7.43
2019-05-30T02:38:42.005Z,11.10
2019-05-30T02:41:13.720Z,4.83
2019-05-30T02:43:45.547Z,6.27
2019-05-30T02:46:17.258Z,9.57
2019-05-30T02:48:58.761Z,6.70
2019-05-30T02:51:22.295Z,6.60
2019-05-30T02:53:54.009Z,4.60
2019-05-30T02:56:26.705Z,11.40
2019-05-30T02:58:58.520Z,7.43
2019-05-30T03:01:30.137Z,5.43
2019-05-30T03:04:03.878Z,8.33
2019-05-30T03:06:35.918Z,6.87
2019-05-30T03:09:10.758Z,9.33
2019-05-30T03:11:42.206Z,10.87
2019-05-30T03:14:19.000Z,7.70
2019-05-30T03:16:47.877Z,5.50
2019-05-30T03:19:19.869Z,6.50
2019-05-30T03:21:51.927Z,6.70
2019-05-30T03:24:23.752Z,5.57
2019-05-30T03:26:55.537Z,12.10
2019-05-30T03:29:27.264Z,6.37
2019-05-30T03:32:33.831Z,5.73
2019-05-30T03:34:33.245Z,7.67
2019-05-30T03:37:09.330Z,8.23
2019-05-30T03:39:38.590Z,7.70
2019-05-30T03:42:11.775Z,10.97
2019-05-30T03:44:43.950Z,7.90
2019-05-30T03:47:19.092Z,5.80
2019-05-30T03:49:52.061Z,8.20
2019-05-30T03:52:25.798Z,7.67
2019-05-30T03:54:57.495Z,7.60
2019-05-30T03:57:42.209Z,12.03
2019-05-30T04:00:38.658Z,19.43
2019-05-30T04:03:46.453Z,17.23
2019-05-30T04:06:23.584Z,21.77
2019-05-30T04:08:59.900Z,18.93
2019-05-30T04:11:41.965Z,34.20
2019-05-30T04:14:19.380Z,15.93
2019-05-30T04:16:50.957Z,30.43
2019-05-30T04:19:22.797Z,21.50
2019-05-30T04:21:54.638Z,14.37
2019-05-30T04:24:26.397Z,10.43
2019-05-30T04:26:58.141Z,8.93
2019-05-30T04:29:29.871Z,9.00
2019-05-30T04:32:02.588Z,10.10
2019-05-30T04:34:34.295Z,10.60
2019-05-30T04:37:06.028Z,6.30
2019-05-30T04:39:37.858Z,9.30
2019-05-30T04:42:11.169Z,4.57
2019-05-30T04:44:42.907Z,5.23
2019-05-30T04:47:15.999Z,5.73
2019-05-30T04:49:47.947Z,8.43
2019-05-30T04:52:23.909Z,6.20
2019-05-30T04:54:53.011Z,10.13
2019-05-30T04:57:26.875Z,7.53
2019-05-30T04:59:58.073Z,5.83
2019-05-30T05:02:29.833Z,5.43
2019-05-30T05:05:01.563Z,6.20
2019-05-30T05:07:34.231Z,5.03
2019-05-30T05:10:09.414Z,6.43
2019-05-30T05:12:41.332Z,10.20
2019-05-30T05:15:14.320Z,4.30
2019-05-30T05:17:46.231Z,7.70
2019-05-30T05:20:19.367Z,7.77
2019-05-30T05:22:51.690Z,5.93
2019-05-30T05:25:23.644Z,6.87
2019-05-30T05:27:55.683Z,5.50
2019-05-30T05:30:28.678Z,4.63
2019-05-30T05:33:00.439Z,5.67
2019-05-30T05:35:32.164Z,8.50
2019-05-30T05:38:03.907Z,8.27
2019-05-30T05:40:35.731Z,8.27
2019-05-30T05:43:07.487Z,8.97
2019-05-30T05:45:39.211Z,9.03
2019-05-30T05:48:10.949Z,6.20
2019-05-30T05:50:42.760Z,6.53
2019-05-30T05:53:14.497Z,8.70
2019-05-30T05:55:46.225Z,6.23
2019-05-30T05:58:19.109Z,6.23
2019-05-30T06:00:51.289Z,5.23
2019-05-30T06:03:24.154Z,5.03
2019-05-30T06:05:56.487Z,5.83
2019-05-30T06:08:28.997Z,6.07
2019-05-30T06:11:00.824Z,8.03
2019-05-30T06:13:32.553Z,7.17
2019-05-30T06:16:04.721Z,7.00
2019-05-30T06:18:36.347Z,4.57
2019-05-30T06:21:08.179Z,7.13
2019-05-30T06:23:39.912Z,6.07
2019-05-30T06:26:11.640Z,8.47
2019-05-30T06:28:43.378Z,6.27
2019-05-30T06:31:15.225Z,3.37
2019-05-30T06:33:46.958Z,5.87
2019-05-30T06:36:18.865Z,5.43
2019-05-30T06:38:51.013Z,4.90
2019-05-30T06:41:23.527Z,6.37
2019-05-30T06:43:55.481Z,6.47
2019-05-30T06:46:28.294Z,6.33
2019-05-30T06:49:00.533Z,6.13
2019-05-30T06:51:32.271Z,6.63
2019-05-30T06:54:04.100Z,4.10
2019-05-30T06:56:35.830Z,5.83
2019-05-30T06:59:07.596Z,4.50
2019-05-30T07:01:39.302Z,5.43
2019-05-30T07:04:11.504Z,6.57
2019-05-30T07:06:44.045Z,5.00
2019-05-30T07:09:15.852Z,2.37
2019-05-30T07:11:47.891Z,2.93
2019-05-30T07:14:21.133Z,4.17
2019-05-30T07:16:52.965Z,3.43
2019-05-30T07:19:25.345Z,5.77
2019-05-30T07:21:57.408Z,4.23
2019-05-30T07:24:29.910Z,5.80
2019-05-30T07:27:04.198Z,7.30
2019-05-30T07:29:36.027Z,4.90
2019-05-30T07:32:07.861Z,3.67
2019-05-30T07:34:39.609Z,4.40
2019-05-30T07:37:11.343Z,2.27
2019-05-30T07:39:43.081Z,3.07
2019-05-30T07:42:14.804Z,4.97
2019-05-30T07:44:46.630Z,2.60
2019-05-30T07:47:18.365Z,1.67
2019-05-30T07:49:50.091Z,2.50
2019-05-30T07:52:22.284Z,4.10
2019-05-30T07:54:53.917Z,5.23
2019-05-30T07:57:26.137Z,4.30
2019-05-30T07:59:58.367Z,1.63
2019-05-30T08:02:30.111Z,3.10
2019-05-30T08:05:01.928Z,3.67
2019-05-30T08:07:34.982Z,4.30
2019-05-30T08:10:09.965Z,5.53
2019-05-30T08:12:41.748Z,12.23
2019-05-30T08:15:14.724Z,3.23
2019-05-30T08:17:46.552Z,3.37
2019-05-30T08:20:20.228Z,5.10
2019-05-30T08:22:51.853Z,3.37
2019-05-30T08:25:23.677Z,4.87
2019-05-30T08:27:55.406Z,3.60
2019-05-30T08:30:28.316Z,17.30
2019-05-30T08:33:00.508Z,9.70
2019-05-30T08:35:46.898Z,3.17
2019-05-30T08:38:05.772Z,5.33
2019-05-30T08:40:37.817Z,5.43
2019-05-30T08:43:09.921Z,3.83
2019-05-30T08:45:41.808Z,2.67
2019-05-30T08:48:14.773Z,4.50
2019-05-30T08:50:46.408Z,4.73
2019-05-30T08:53:18.612Z,2.93
2019-05-30T08:55:50.242Z,4.70
2019-05-30T08:58:22.079Z,6.80
2019-05-30T09:00:53.812Z,8.60
2019-05-30T09:03:25.542Z,3.73
2019-05-30T09:06:03.686Z,2.90
2019-05-30T09:08:30.606Z,7.60
2019-05-30T09:11:02.334Z,4.57
2019-05-30T09:13:34.163Z,4.50
2019-05-30T09:16:06.074Z,3.93
2019-05-30T09:18:38.556Z,5.10
2019-05-30T09:21:11.535Z,2.37
2019-05-30T09:23:44.015Z,3.57
2019-05-30T09:26:15.682Z,2.80
2019-05-30T09:28:48.301Z,4.53
2019-05-30T09:31:21.363Z,9.27
2019-05-30T09:33:53.100Z,3.87
2019-05-30T09:36:24.826Z,2.17
2019-05-30T09:38:56.668Z,6.43
2019-05-30T09:41:28.391Z,4.20
2019-05-30T09:44:00.121Z,8.50
2019-05-30T09:46:31.843Z,6.63
2019-05-30T09:49:03.653Z,2.93
2019-05-30T09:51:35.468Z,3.70
2019-05-30T09:54:07.259Z,4.50
2019-05-30T09:56:38.886Z,3.03
2019-05-30T09:59:10.718Z,4.37
2019-05-30T10:01:43.167Z,8.30
2019-05-30T10:04:15.771Z,5.63
2019-05-30T10:06:48.449Z,3.93
2019-05-30T10:09:20.496Z,4.97
2019-05-30T10:11:53.400Z,6.20
2019-05-30T10:14:25.529Z,3.37
2019-05-30T10:16:58.156Z,4.03
2019-05-30T10:19:30.314Z,4.60
2019-05-30T10:22:02.079Z,5.87
2019-05-30T10:24:33.807Z,8.07
2019-05-30T10:27:05.533Z,7.17
2019-05-30T10:29:37.646Z,6.60
2019-05-30T10:32:09.368Z,5.33
2019-05-30T10:34:41.102Z,4.83
2019-05-30T10:37:12.939Z,5.13
2019-05-30T10:39:45.681Z,11.53
2019-05-30T10:42:18.228Z,11.10
2019-05-30T10:44:51.863Z,5.30
2019-05-30T10:47:23.595Z,9.77
2019-05-30T10:49:55.429Z,6.47
2019-05-30T10:52:27.150Z,4.50
2019-05-30T10:54:58.889Z,7.67
2019-05-30T10:57:30.620Z,8.07
2019-05-30T11:00:02.618Z,3.00
2019-05-30T11:02:34.527Z,4.60
2019-05-30T11:05:10.658Z,3.80
2019-05-30T11:08:06.337Z,3.70
2019-05-30T11:10:46.732Z,7.63
2019-05-30T11:13:19.001Z,1.83
2019-05-30T11:15:51.721Z,5.93
2019-05-30T11:18:23.729Z,4.93
2019-05-30T11:20:56.411Z,3.20
2019-05-30T11:23:28.181Z,8.83
2019-05-30T11:25:59.926Z,3.63
2019-05-30T11:28:31.661Z,7.80
2019-05-30T11:31:04.808Z,12.83
2019-05-30T11:33:37.090Z,11.07
2019-05-30T11:36:08.817Z,8.33
2019-05-30T11:38:40.552Z,6.00
2019-05-30T11:41:12.385Z,6.30
2019-05-30T11:43:44.191Z,24.33
2019-05-30T11:46:15.826Z,7.27
2019-05-30T11:48:47.660Z,2.27
2019-05-30T11:51:19.390Z,3.43
2019-05-30T11:53:51.822Z,4.17
2019-05-30T11:56:23.496Z,6.53
2019-05-30T11:58:55.999Z,8.53
2019-05-30T12:01:27.638Z,7.30
2019-05-30T12:04:00.687Z,5.80
2019-05-30T12:06:33.995Z,6.10
2019-05-30T12:09:08.061Z,6.33
2019-05-30T12:11:39.619Z,11.27
2019-05-30T12:14:11.345Z,5.37
2019-05-30T12:16:43.083Z,4.93
2019-05-30T12:19:14.825Z,6.97
2019-05-30T12:21:46.554Z,5.70
2019-05-30T12:24:18.578Z,5.07
2019-05-30T12:26:50.414Z,5.10
2019-05-30T12:29:22.233Z,5.30
2019-05-30T12:31:57.565Z,8.43
2019-05-30T12:34:27.304Z,6.23
2019-05-30T12:36:59.047Z,14.80
2019-05-30T12:39:32.715Z,6.47
2019-05-30T12:42:04.727Z,5.50
2019-05-30T12:44:37.989Z,5.50
2019-05-30T12:47:09.706Z,6.77
2019-05-30T12:49:42.401Z,5.57
2019-05-30T12:52:14.136Z,6.63
2019-05-30T12:54:45.977Z,3.73
2019-05-30T12:57:17.721Z,4.33
2019-05-30T12:59:49.448Z,6.53
2019-05-30T13:02:21.198Z,7.77
2019-05-30T13:04:52.925Z,5.03
2019-05-30T13:07:24.784Z,4.20
2019-05-30T13:09:57.129Z,7.07
2019-05-30T13:12:29.162Z,4.83
2019-05-30T13:15:01.912Z,7.33
2019-05-30T13:17:34.241Z,11.77
2019-05-30T13:20:10.813Z,5.83
2019-05-30T13:22:43.593Z,12.17
2019-05-30T13:25:18.383Z,5.73
2019-05-30T13:27:50.144Z,8.30
2019-05-30T13:30:22.471Z,8.47
2019-05-30T13:32:54.718Z,12.10
2019-05-30T13:35:28.237Z,5.37
2019-05-30T15:36:39.338Z,4.33
2019-05-30T15:39:11.085Z,7.87
2019-05-30T15:41:42.808Z,4.13
2019-05-30T15:44:15.715Z,9.67
2019-05-30T15:46:47.907Z,7.30
2019-05-30T15:49:20.631Z,3.70
2019-05-30T15:51:52.670Z,3.77
2019-05-30T15:54:24.411Z,4.73
2019-05-30T15:56:56.214Z,10.30
2019-05-30T15:59:27.961Z,6.70
2019-05-30T16:01:59.721Z,5.77
2019-05-30T16:04:31.448Z,9.63
2019-05-30T16:07:03.203Z,4.53
2019-05-30T16:09:46.777Z,7.93
2019-05-30T16:12:13.007Z,6.87
2019-05-30T16:14:49.729Z,6.17
2019-05-30T16:17:21.824Z,7.20
2019-05-30T16:19:53.533Z,7.50
2019-05-30T16:22:25.570Z,7.60
2019-05-30T16:24:57.504Z,3.50
2019-05-30T16:27:31.323Z,6.93
2019-05-30T16:30:03.829Z,5.03
2019-05-30T16:32:36.062Z,3.73
2019-05-30T16:35:09.050Z,4.33
2019-05-30T16:37:41.022Z,3.27
2019-05-30T16:40:14.495Z,3.87
2019-05-30T16:42:46.555Z,3.57
2019-05-30T16:45:24.631Z,7.13
2019-05-30T16:47:53.664Z,4.70
2019-05-30T16:50:27.014Z,4.80
2019-05-30T16:53:01.335Z,4.83
2019-05-30T16:55:33.134Z,5.30
2019-05-30T16:58:05.198Z,4.70
2019-05-30T17:00:36.865Z,7.37
2019-05-30T17:03:08.746Z,8.57
2019-05-30T17:05:40.605Z,3.23
2019-05-30T17:08:12.470Z,6.67
2019-05-30T17:10:44.298Z,11.13
2019-05-30T17:13:15.941Z,12.63
2019-05-30T17:15:48.481Z,22.43
2019-05-30T17:18:20.304Z,9.17
2019-05-30T17:20:52.177Z,19.60
2019-05-30T17:23:24.854Z,11.20
2019-05-30T17:25:57.030Z,8.70
2019-05-30T17:28:30.096Z,8.30
2019-05-30T17:31:02.014Z,8.90
2019-05-30T17:33:33.859Z,9.37
2019-05-30T17:36:06.125Z,7.57
2019-05-30T17:38:37.893Z,10.67
2019-05-30T17:41:09.761Z,8.93
2019-05-30T17:43:41.951Z,19.50
2019-05-30T17:46:13.790Z,42.20
2019-05-30T17:48:45.837Z,39.83
2019-05-30T17:51:19.775Z,31.13
2019-05-30T17:53:51.504Z,19.93
2019-05-30T17:56:23.968Z,14.13
2019-05-30T17:58:56.078Z,43.00
2019-05-30T18:01:30.559Z,104.63
2019-05-30T18:04:02.505Z,35.67
2019-05-30T18:06:34.299Z,52.60
2019-05-30T18:09:08.406Z,13.77
2019-05-30T18:11:39.960Z,16.27
2019-05-30T18:14:11.816Z,19.70
2019-05-30T18:16:44.449Z,10.47
2019-05-30T18:19:16.173Z,22.80
2019-05-30T18:21:47.944Z,11.53
2019-05-30T18:24:21.435Z,8.17
2019-05-30T18:26:53.252Z,10.57
2019-05-30T18:29:26.045Z,14.10
2019-05-30T18:31:59.554Z,29.40
2019-05-30T18:34:32.786Z,26.37
2019-05-30T18:37:05.293Z,24.53
2019-05-30T18:39:36.934Z,29.03
2019-05-30T18:42:08.686Z,28.13
2019-05-30T18:44:40.442Z,18.87
2019-05-30T18:47:12.179Z,16.30
2019-05-30T18:49:44.019Z,15.00
2019-05-30T18:52:17.357Z,17.53
2019-05-30T18:54:49.306Z,16.10
2019-05-30T18:57:21.054Z,15.87
2019-05-30T18:59:52.907Z,15.73
2019-05-30T19:02:25.134Z,19.80
2019-05-30T19:04:57.120Z,20.53
2019-05-30T19:07:37.194Z,19.13
2019-05-30T19:10:11.543Z,14.60
2019-05-30T19:12:43.722Z,15.63
2019-05-30T19:15:18.031Z,12.43
2019-05-30T19:17:52.459Z,25.40
2019-05-30T19:20:25.551Z,21.00
2019-05-30T19:22:57.670Z,14.17
2019-05-30T19:25:29.971Z,14.43
2019-05-30T19:28:02.155Z,19.43
2019-05-30T19:30:34.889Z,14.20
2019-05-30T19:33:08.570Z,15.43
2019-05-30T19:35:41.530Z,12.60
2019-05-30T19:38:15.215Z,15.67
2019-05-30T19:40:47.187Z,12.97
2019-05-30T19:43:18.831Z,18.07
2019-05-30T19:45:50.766Z,16.43
2019-05-30T19:48:23.664Z,11.20
2019-05-30T19:50:55.423Z,14.07
2019-05-30T19:53:28.793Z,16.77
2019-05-30T19:56:01.448Z,9.50
2019-05-30T19:58:33.500Z,13.20
2019-05-30T20:01:07.671Z,15.53
2019-05-30T20:03:45.164Z,14.83
2019-05-30T20:06:14.747Z,10.07
2019-05-30T20:08:55.514Z,22.77
2019-05-30T20:11:26.684Z,9.70
2019-05-30T20:13:58.671Z,9.73
2019-05-30T20:16:31.391Z,9.60
2019-05-30T20:19:04.871Z,7.47
2019-05-30T20:21:37.790Z,10.70
2019-05-30T20:24:10.254Z,10.80
2019-05-30T20:26:45.584Z,10.10
2019-05-30T20:29:21.167Z,7.67
2019-05-30T20:31:58.658Z,10.23
2019-05-30T20:34:31.372Z,14.80
2019-05-30T20:37:09.626Z,23.77
2019-05-30T20:39:50.133Z,15.60
2019-05-30T20:42:24.667Z,27.80
2019-05-30T20:44:56.589Z,18.67
2019-05-30T20:47:36.021Z,16.03
2019-05-30T20:50:10.318Z,19.03
2019-05-30T20:52:45.592Z,19.33
2019-05-30T20:55:18.722Z,15.77
2019-05-30T20:57:50.351Z,22.20
2019-05-30T21:00:25.501Z,38.90
2019-05-30T21:02:59.898Z,19.93
2019-05-30T21:05:31.661Z,19.80
2019-05-30T21:08:06.152Z,25.47
2019-05-30T21:10:41.526Z,23.17
2019-05-30T21:13:16.734Z,15.37
2019-05-30T21:15:50.825Z,16.83
2019-05-30T21:18:25.292Z,20.80
2019-05-30T21:20:57.694Z,26.63
2019-05-30T21:23:29.639Z,27.50
2019-05-30T21:26:01.448Z,19.43
2019-05-30T21:28:33.105Z,31.23
2019-05-30T21:31:04.828Z,16.80
2019-05-30T21:33:37.519Z,22.17
2019-05-30T21:36:09.666Z,17.23
2019-05-30T21:38:41.947Z,19.73
2019-05-30T21:41:13.933Z,18.60
2019-05-30T21:43:46.790Z,18.77
2019-05-30T21:46:19.180Z,17.97
2019-05-30T21:48:50.916Z,27.90
2019-05-30T21:51:22.651Z,17.00
2019-05-30T21:53:55.735Z,21.57
2019-05-30T21:56:27.417Z,14.97
2019-05-30T21:59:00.016Z,20.40
2019-05-30T22:01:34.769Z,32.63
2019-05-30T22:04:08.139Z,28.13
2019-05-30T22:06:40.843Z,25.47
2019-05-30T22:09:12.797Z,34.00
2019-05-30T22:11:45.577Z,29.50
2019-05-30T22:14:17.870Z,31.90
2019-05-30T22:16:50.248Z,36.17
2019-05-30T22:19:23.016Z,31.60
2019-05-30T22:21:54.820Z,30.73
2019-05-30T22:24:26.982Z,25.13
2019-05-30T22:26:58.617Z,26.87
2019-05-30T22:29:30.373Z,28.00
2019-05-30T22:32:02.788Z,18.27
2019-05-30T22:34:34.528Z,15.63
2019-05-30T22:37:06.581Z,16.13
2019-05-30T22:39:38.622Z,21.27
2019-05-30T22:42:10.379Z,19.60
2019-05-30T22:44:42.101Z,24.47
2019-05-30T22:47:13.946Z,17.93
2019-05-30T22:49:46.700Z,15.23
2019-05-30T22:52:18.794Z,16.50
2019-05-30T22:54:51.225Z,20.13
2019-05-30T22:57:23.360Z,16.87
2019-05-30T22:59:55.199Z,13.23
2019-05-30T23:02:26.932Z,13.00
2019-05-30T23:04:58.669Z,14.33
2019-05-30T23:07:30.535Z,18.30
2019-05-30T23:10:05.774Z,15.30
2019-05-30T23:12:37.603Z,13.23
2019-05-30T23:15:10.542Z,10.47
2019-05-30T23:17:42.376Z,15.37
2019-05-30T23:20:15.970Z,20.03
2019-05-30T23:22:48.837Z,15.50
2019-05-30T23:25:21.904Z,15.67
2019-05-30T23:27:53.733Z,12.93
2019-05-30T23:30:27.066Z,17.23
2019-05-30T23:32:58.773Z,18.73
2019-05-30T23:35:30.511Z,20.07
2019-05-30T23:38:02.306Z,10.50
2019-05-30T23:40:35.619Z,13.77
2019-05-30T23:43:07.581Z,14.57
2019-05-30T23:45:39.395Z,11.30
2019-05-30T23:48:11.122Z,14.50
2019-05-30T23:50:43.023Z,16.77
2019-05-30T23:53:14.651Z,11.60
2019-05-30T23:55:46.481Z,14.07
2019-05-30T23:58:18.211Z,16.87
